createdAt,value
2018-06-09T00:02:06.883Z,100.00
2018-06-09T00:04:36.181Z,100.00
2018-06-09T00:07:05.370Z,100.00
2018-06-09T00:09:34.671Z,100.00
2018-06-09T00:12:03.935Z,100.00
2018-06-09T00:14:33.147Z,100.00
2018-06-09T00:17:02.450Z,100.00
2018-06-09T00:19:31.672Z,100.00
2018-06-09T00:22:00.898Z,100.00
2018-06-09T00:24:30.112Z,100.00
2018-06-09T00:26:59.337Z,100.00
2018-06-09T00:29:28.574Z,100.00
2018-06-09T00:31:57.857Z,100.00
2018-06-09T00:34:27.128Z,100.00
2018-06-09T00:36:56.358Z,100.00
2018-06-09T00:39:25.618Z,100.00
2018-06-09T00:41:54.841Z,100.00
2018-06-09T00:44:24.092Z,100.00
2018-06-09T00:46:53.114Z,100.00
2018-06-09T00:49:22.320Z,100.00
2018-06-09T00:51:51.581Z,100.00
2018-06-09T00:54:20.825Z,100.00
2018-06-09T00:56:50.035Z,100.00
2018-06-09T00:59:19.360Z,100.00
2018-06-09T01:01:48.342Z,100.00
2018-06-09T01:04:17.618Z,100.00
2018-06-09T01:06:46.875Z,100.00
2018-06-09T01:09:16.085Z,100.00
2018-06-09T01:11:45.304Z,100.00
2018-06-09T01:14:14.594Z,100.00
2018-06-09T01:16:43.872Z,100.00
2018-06-09T01:19:13.200Z,100.00
2018-06-09T01:21:42.588Z,100.00
2018-06-09T01:24:11.882Z,100.00
2018-06-09T01:26:41.195Z,100.00
2018-06-09T01:29:10.442Z,100.00
2018-06-09T01:31:39.678Z,100.00
2018-06-09T01:34:08.963Z,100.00
2018-06-09T01:36:38.212Z,100.00
2018-06-09T01:39:09.428Z,100.00
2018-06-09T01:41:38.689Z,100.00
2018-06-09T01:44:07.996Z,100.00
2018-06-09T01:46:37.259Z,100.00
2018-06-09T01:49:06.524Z,100.00
2018-06-09T01:51:35.740Z,100.00
2018-06-09T01:54:05.280Z,100.00
2018-06-09T01:56:34.489Z,100.00
2018-06-09T01:59:03.730Z,100.00
2018-06-09T02:01:33.010Z,100.00
2018-06-09T02:04:02.380Z,100.00
2018-06-09T02:06:31.621Z,100.00
2018-06-09T02:09:00.874Z,100.00
2018-06-09T02:11:30.105Z,100.00
2018-06-09T02:13:59.374Z,100.00
2018-06-09T02:16:28.373Z,100.00
2018-06-09T02:18:57.618Z,100.00
2018-06-09T02:21:26.939Z,100.00
2018-06-09T02:23:56.214Z,100.00
2018-06-09T02:26:25.431Z,100.00
2018-06-09T02:28:54.405Z,100.00
2018-06-09T02:31:23.606Z,100.00
2018-06-09T02:33:52.971Z,100.00
2018-06-09T02:36:22.215Z,100.00
2018-06-09T02:38:51.450Z,100.00
2018-06-09T02:41:27.538Z,100.00
2018-06-09T02:43:56.779Z,100.00
2018-06-09T02:46:25.766Z,100.00
2018-06-09T02:48:54.970Z,100.00
2018-06-09T02:51:24.185Z,100.00
2018-06-09T02:53:53.443Z,100.00
2018-06-09T02:56:22.647Z,100.00
2018-06-09T02:58:51.916Z,100.00
2018-06-09T03:01:21.155Z,100.00
2018-06-09T03:03:50.146Z,100.00
2018-06-09T03:06:19.385Z,100.00
2018-06-09T03:08:48.600Z,100.00
2018-06-09T03:11:17.882Z,100.00
2018-06-09T03:13:47.106Z,100.00
2018-06-09T03:16:16.390Z,100.00
2018-06-09T03:18:45.646Z,100.00
2018-06-09T03:21:15.080Z,100.00
2018-06-09T03:23:45.374Z,100.00
2018-06-09T03:26:14.717Z,100.00
2018-06-09T03:28:43.983Z,100.00
2018-06-09T03:31:13.409Z,100.00
2018-06-09T03:33:42.699Z,100.00
2018-06-09T03:36:12.000Z,100.00
2018-06-09T03:38:41.291Z,100.00
2018-06-09T03:41:11.017Z,100.00
2018-06-09T03:43:40.338Z,100.00
2018-06-09T03:46:10.409Z,100.00
2018-06-09T03:48:39.635Z,100.00
2018-06-09T03:51:08.847Z,100.00
2018-06-09T03:53:38.057Z,100.00
2018-06-09T03:56:07.325Z,100.00
2018-06-09T03:58:36.527Z,100.00
2018-06-09T04:01:05.795Z,100.00
2018-06-09T04:03:35.023Z,100.00
2018-06-09T04:06:04.262Z,100.00
2018-06-09T04:08:33.483Z,100.00
2018-06-09T04:11:02.763Z,100.00
2018-06-09T04:13:31.994Z,100.00
2018-06-09T04:16:01.231Z,100.00
2018-06-09T04:18:30.523Z,100.00
2018-06-09T04:20:59.855Z,100.00
2018-06-09T04:23:29.079Z,100.00
2018-06-09T04:25:58.422Z,100.00
2018-06-09T04:28:27.695Z,100.00
2018-06-09T04:30:56.935Z,100.00
2018-06-09T04:33:26.162Z,100.00
2018-06-09T04:35:55.179Z,100.00
2018-06-09T04:38:24.370Z,100.00
2018-06-09T04:40:53.621Z,100.00
2018-06-09T04:43:22.859Z,100.00
2018-06-09T04:45:52.067Z,100.00
2018-06-09T04:48:21.289Z,98.45
2018-06-09T04:50:50.498Z,93.62
2018-06-09T04:53:19.712Z,91.72
2018-06-09T04:55:48.934Z,90.46
2018-06-09T04:58:18.182Z,87.74
2018-06-09T05:00:47.395Z,87.35
2018-06-09T05:03:16.671Z,85.61
2018-06-09T05:05:45.925Z,85.68
2018-06-09T05:08:15.226Z,85.72
2018-06-09T05:10:44.226Z,83.56
2018-06-09T05:13:13.554Z,81.72
2018-06-09T05:15:42.622Z,82.51
2018-06-09T05:18:12.075Z,80.73
2018-06-09T05:20:41.330Z,80.36
2018-06-09T05:23:10.615Z,81.29
2018-06-09T05:25:39.870Z,79.69
2018-06-09T05:28:09.128Z,79.04
2018-06-09T05:30:38.372Z,77.71
2018-06-09T05:33:07.610Z,76.77
2018-06-09T05:35:36.838Z,79.62
2018-06-09T05:38:06.315Z,79.30
2018-06-09T05:40:35.566Z,78.18
2018-06-09T05:43:04.849Z,78.11
2018-06-09T05:45:34.069Z,76.03
2018-06-09T05:48:03.356Z,77.94
2018-06-09T05:50:32.554Z,78.53
2018-06-09T05:53:01.762Z,79.90
2018-06-09T05:55:30.980Z,79.02
2018-06-09T05:58:00.208Z,77.55
2018-06-09T06:00:29.478Z,77.46
2018-06-09T06:02:58.544Z,76.22
2018-06-09T06:05:27.774Z,76.34
2018-06-09T06:07:57.084Z,76.63
2018-06-09T06:10:26.439Z,76.13
2018-06-09T06:12:55.696Z,78.99
2018-06-09T06:15:24.961Z,75.99
2018-06-09T06:17:54.206Z,76.81
2018-06-09T06:20:23.420Z,75.91
2018-06-09T06:22:52.627Z,74.29
2018-06-09T06:25:21.950Z,75.06
2018-06-09T06:27:51.217Z,73.59
2018-06-09T06:30:20.605Z,73.67
2018-06-09T06:32:49.841Z,76.08
2018-06-09T06:35:19.117Z,75.37
2018-06-09T06:37:48.325Z,72.54
2018-06-09T06:40:17.589Z,70.56
2018-06-09T06:42:46.831Z,68.43
2018-06-09T06:45:16.134Z,70.25
2018-06-09T06:47:45.608Z,70.97
2018-06-09T06:50:14.978Z,70.21
2018-06-09T06:52:44.319Z,70.03
2018-06-09T06:55:13.582Z,69.91
2018-06-09T06:57:42.813Z,71.35
2018-06-09T07:00:12.802Z,69.39
2018-06-09T07:02:42.030Z,70.75
2018-06-09T07:05:11.319Z,69.57
2018-06-09T07:07:40.611Z,69.33
2018-06-09T07:10:09.974Z,68.91
2018-06-09T07:12:39.251Z,71.43
2018-06-09T07:15:08.492Z,72.11
2018-06-09T07:17:37.757Z,73.80
2018-06-09T07:20:06.977Z,73.70
2018-06-09T07:22:36.222Z,73.62
2018-06-09T07:25:05.497Z,71.58
2018-06-09T07:27:34.743Z,68.34
2018-06-09T07:30:03.767Z,68.83
2018-06-09T07:32:32.960Z,67.02
2018-06-09T07:35:01.984Z,67.58
2018-06-09T07:37:31.218Z,66.87
2018-06-09T07:40:00.612Z,70.38
2018-06-09T07:42:29.950Z,69.96
2018-06-09T07:44:59.194Z,70.86
2018-06-09T07:47:28.471Z,68.96
2018-06-09T07:49:57.750Z,69.53
2018-06-09T07:52:26.993Z,66.61
2018-06-09T07:54:56.216Z,67.79
2018-06-09T07:57:25.511Z,66.00
2018-06-09T07:59:54.719Z,66.69
2018-06-09T08:02:24.013Z,65.58
2018-06-09T08:04:53.311Z,69.54
2018-06-09T08:07:22.588Z,66.93
2018-06-09T08:09:51.803Z,65.60
2018-06-09T08:12:21.090Z,70.46
2018-06-09T08:14:50.463Z,68.83
2018-06-09T08:17:19.762Z,69.17
2018-06-09T08:19:48.982Z,69.95
2018-06-09T08:22:18.288Z,67.26
2018-06-09T08:24:47.521Z,66.25
2018-06-09T08:27:16.750Z,64.95
2018-06-09T08:29:46.032Z,61.82
2018-06-09T08:32:15.288Z,58.96
2018-06-09T08:34:44.591Z,59.88
2018-06-09T08:37:13.923Z,58.73
2018-06-09T08:39:43.203Z,60.29
2018-06-09T08:42:12.597Z,60.87
2018-06-09T08:44:42.786Z,61.81
2018-06-09T08:47:12.144Z,61.54
2018-06-09T08:49:41.413Z,57.97
2018-06-09T08:52:10.690Z,57.71
2018-06-09T08:54:40.037Z,57.57
2018-06-09T08:57:09.217Z,59.01
2018-06-09T08:59:38.502Z,62.10
2018-06-09T09:02:07.804Z,62.41
2018-06-09T09:04:37.051Z,64.62
2018-06-09T09:07:06.338Z,59.61
2018-06-09T09:09:35.555Z,61.83
2018-06-09T09:12:11.628Z,58.09
2018-06-09T09:14:41.542Z,57.83
2018-06-09T09:17:11.162Z,60.01
2018-06-09T09:19:40.406Z,58.36
2018-06-09T09:22:10.639Z,56.11
2018-06-09T09:24:39.947Z,58.69
2018-06-09T09:27:09.689Z,57.33
2018-06-09T09:29:39.709Z,58.22
2018-06-09T09:32:09.093Z,62.60
2018-06-09T09:34:38.389Z,61.27
2018-06-09T09:37:07.789Z,59.43
2018-06-09T09:39:37.147Z,58.39
2018-06-09T09:42:06.431Z,57.17
2018-06-09T09:44:35.715Z,57.70
2018-06-09T09:47:05.057Z,56.47
2018-06-09T09:49:34.362Z,58.96
2018-06-09T09:52:03.687Z,56.56
2018-06-09T09:54:32.999Z,56.70
2018-06-09T09:57:02.245Z,59.71
2018-06-09T09:59:31.691Z,58.39
2018-06-09T10:02:00.999Z,57.16
2018-06-09T10:04:30.380Z,58.89
2018-06-09T10:06:59.688Z,56.83
2018-06-09T10:09:29.032Z,55.16
2018-06-09T10:11:58.364Z,58.43
2018-06-09T10:14:27.733Z,60.15
2018-06-09T10:16:56.707Z,60.74
2018-06-09T10:19:26.017Z,61.69
2018-06-09T10:21:55.340Z,59.36
2018-06-09T10:24:24.625Z,55.95
2018-06-09T10:26:53.911Z,52.32
2018-06-09T10:29:23.202Z,54.82
2018-06-09T10:31:52.456Z,57.13
2018-06-09T10:34:21.728Z,58.95
2018-06-09T10:36:50.992Z,60.09
2018-06-09T10:39:20.292Z,55.91
2018-06-09T10:41:49.575Z,55.48
2018-06-09T10:44:18.861Z,57.17
2018-06-09T10:46:48.137Z,60.18
2018-06-09T10:49:17.523Z,58.87
2018-06-09T10:51:46.781Z,57.75
2018-06-09T10:54:16.405Z,56.74
2018-06-09T10:56:46.193Z,55.88
2018-06-09T10:59:15.770Z,54.43
2018-06-09T11:01:45.224Z,54.85
2018-06-09T11:04:14.908Z,54.54
2018-06-09T11:06:44.552Z,56.29
2018-06-09T11:09:14.090Z,56.30
2018-06-09T11:11:43.609Z,57.29
2018-06-09T11:14:13.129Z,56.10
2018-06-09T11:16:43.510Z,53.11
2018-06-09T11:19:13.523Z,54.10
2018-06-09T11:21:43.099Z,56.33
2018-06-09T11:24:12.983Z,54.01
2018-06-09T11:26:42.440Z,55.65
2018-06-09T11:29:11.900Z,53.77
2018-06-09T11:31:41.418Z,55.71
2018-06-09T11:34:10.850Z,55.18
2018-06-09T11:36:40.324Z,56.97
2018-06-09T11:39:10.843Z,57.96
2018-06-09T11:41:40.572Z,56.82
2018-06-09T11:44:10.025Z,56.62
2018-06-09T11:46:39.448Z,56.94
2018-06-09T11:49:08.880Z,57.65
2018-06-09T11:51:38.382Z,55.94
2018-06-09T11:54:07.906Z,57.35
2018-06-09T11:56:37.304Z,54.38
2018-06-09T11:59:06.716Z,54.77
2018-06-09T12:01:36.186Z,55.58
2018-06-09T12:04:05.685Z,52.77
2018-06-09T12:06:35.137Z,52.62
2018-06-09T12:09:07.011Z,52.77
2018-06-09T12:11:36.384Z,51.17
2018-06-09T12:14:05.706Z,50.35
2018-06-09T12:16:35.158Z,48.91
2018-06-09T12:19:04.667Z,48.11
2018-06-09T12:21:34.223Z,47.76
2018-06-09T12:24:03.607Z,49.89
2018-06-09T12:26:33.709Z,47.99
2018-06-09T12:29:03.067Z,50.20
2018-06-09T12:31:32.130Z,49.14
2018-06-09T12:34:01.529Z,51.67
2018-06-09T12:36:30.920Z,48.43
2018-06-09T12:39:00.274Z,50.05
2018-06-09T12:41:29.659Z,49.79
2018-06-09T12:43:59.155Z,50.18
2018-06-09T12:46:28.541Z,50.67
2018-06-09T12:48:57.678Z,49.18
2018-06-09T12:51:27.075Z,51.64
2018-06-09T12:53:56.387Z,52.50
2018-06-09T12:56:25.703Z,54.81
2018-06-09T12:58:55.027Z,54.22
2018-06-09T13:01:24.380Z,55.20
2018-06-09T13:03:53.759Z,54.69
2018-06-09T13:06:23.182Z,53.50
2018-06-09T13:08:52.182Z,52.14
2018-06-09T13:11:21.469Z,52.25
2018-06-09T13:13:50.826Z,51.26
2018-06-09T13:16:20.093Z,52.40
2018-06-09T13:18:49.338Z,52.41
2018-06-09T13:21:18.572Z,51.69
2018-06-09T13:23:47.875Z,48.89
2018-06-09T13:26:16.846Z,49.94
2018-06-09T13:28:46.098Z,51.68
2018-06-09T13:31:15.390Z,53.16
2018-06-09T13:33:44.960Z,55.82
2018-06-09T13:36:14.248Z,57.39
2018-06-09T13:38:43.575Z,57.55
2018-06-09T13:41:12.979Z,57.81
2018-06-09T13:43:42.387Z,58.59
2018-06-09T13:46:11.454Z,58.83
2018-06-09T13:48:40.723Z,58.09
2018-06-09T13:51:10.105Z,58.95
2018-06-09T13:53:39.425Z,59.58
2018-06-09T13:56:08.657Z,59.18
2018-06-09T13:58:37.702Z,58.92
2018-06-09T14:01:07.144Z,61.61
2018-06-09T14:03:36.387Z,61.33
2018-06-09T14:06:05.565Z,62.77
2018-06-09T14:08:34.841Z,62.70
2018-06-09T14:11:04.106Z,62.57
2018-06-09T14:13:33.480Z,61.75
2018-06-09T14:16:02.785Z,60.89
2018-06-09T14:18:32.040Z,62.50
2018-06-09T14:21:01.374Z,63.96
2018-06-09T14:23:30.683Z,63.85
2018-06-09T14:26:00.025Z,65.56
2018-06-09T14:28:29.296Z,66.19
2018-06-09T14:30:58.476Z,66.24
2018-06-09T14:33:27.746Z,66.46
2018-06-09T14:35:56.805Z,67.34
2018-06-09T14:38:26.091Z,66.77
2018-06-09T14:40:55.352Z,66.42
2018-06-09T14:43:24.746Z,66.96
2018-06-09T14:45:54.014Z,67.45
2018-06-09T14:48:23.262Z,67.76
2018-06-09T14:50:52.521Z,68.14
2018-06-09T14:53:22.121Z,68.91
2018-06-09T14:55:51.937Z,68.67
2018-06-09T14:58:21.204Z,68.90
2018-06-09T15:00:50.488Z,70.21
2018-06-09T15:03:20.076Z,70.61
2018-06-09T15:05:49.302Z,70.52
2018-06-09T15:08:18.537Z,70.42
2018-06-09T15:10:47.798Z,71.60
2018-06-09T15:13:17.151Z,71.70
2018-06-09T15:15:46.438Z,70.47
2018-06-09T15:18:15.688Z,71.20
2018-06-09T15:20:45.109Z,71.14
2018-06-09T15:23:14.390Z,70.37
2018-06-09T15:25:43.770Z,69.84
2018-06-09T15:28:14.344Z,69.65
2018-06-09T15:30:45.883Z,69.98
2018-06-09T15:33:15.192Z,69.53
2018-06-09T15:35:44.867Z,69.74
2018-06-09T15:38:14.337Z,69.66
2018-06-09T15:40:44.175Z,68.24
2018-06-09T15:43:13.473Z,68.15
2018-06-09T15:45:43.023Z,67.27
2018-06-09T15:50:56.057Z,67.90
2018-06-09T15:53:25.375Z,66.98
2018-06-09T15:55:54.690Z,66.38
2018-06-09T15:58:23.917Z,66.22
2018-06-09T16:00:53.176Z,66.85
2018-06-09T16:03:22.430Z,67.94
2018-06-09T16:05:52.735Z,67.05
2018-06-09T16:08:21.952Z,66.40
2018-06-09T16:10:51.290Z,66.85
2018-06-09T16:13:20.598Z,66.72
2018-06-09T16:15:49.872Z,67.16
2018-06-09T16:18:18.875Z,68.41
2018-06-09T16:20:48.206Z,68.61
2018-06-09T16:23:17.508Z,66.98
2018-06-09T16:25:46.867Z,66.16
2018-06-09T16:28:16.106Z,67.13
2018-06-09T16:30:45.438Z,67.92
2018-06-09T16:33:14.764Z,68.03
2018-06-09T16:35:44.067Z,68.69
2018-06-09T16:38:13.324Z,69.19
2018-06-09T16:40:42.623Z,68.62
2018-06-09T16:43:11.911Z,70.30
2018-06-09T16:45:41.307Z,72.38
2018-06-09T16:48:10.484Z,71.78
2018-06-09T16:50:39.731Z,73.26
2018-06-09T16:53:09.095Z,72.24
2018-06-09T16:55:38.413Z,71.78
2018-06-09T16:58:07.682Z,71.41
2018-06-09T17:00:36.930Z,71.18
2018-06-09T17:03:06.334Z,71.70
2018-06-09T17:05:35.582Z,71.02
2018-06-09T17:08:05.408Z,70.75
2018-06-09T17:10:34.626Z,69.40
2018-06-09T17:13:03.970Z,70.73
2018-06-09T17:15:33.203Z,71.85
2018-06-09T17:18:02.535Z,74.34
2018-06-09T17:20:31.783Z,75.27
2018-06-09T17:23:01.035Z,74.72
2018-06-09T17:25:30.274Z,75.81
2018-06-09T17:27:59.575Z,75.90
2018-06-09T17:30:28.884Z,72.74
2018-06-09T17:32:58.179Z,72.21
2018-06-09T17:35:27.466Z,70.20
2018-06-09T17:37:56.743Z,67.08
2018-06-09T17:40:25.993Z,64.69
2018-06-09T17:42:55.238Z,65.36
2018-06-09T17:45:24.511Z,65.19
2018-06-09T17:47:53.748Z,67.75
2018-06-09T17:50:23.020Z,77.86
2018-06-09T17:52:52.307Z,85.31
2018-06-09T17:55:21.545Z,92.25
2018-06-09T17:57:51.893Z,93.38
2018-06-09T18:00:22.609Z,95.68
2018-06-09T18:02:52.024Z,100.00
2018-06-09T18:05:21.523Z,100.00
2018-06-09T18:07:50.846Z,100.00
2018-06-09T18:10:20.153Z,100.00
2018-06-09T18:12:49.578Z,100.00
2018-06-09T18:15:18.957Z,100.00
2018-06-09T18:17:48.282Z,100.00
2018-06-09T18:20:17.631Z,100.00
2018-06-09T18:22:46.952Z,100.00
2018-06-09T18:25:16.170Z,100.00
2018-06-09T18:27:45.534Z,100.00
2018-06-09T18:30:14.843Z,100.00
2018-06-09T18:32:44.147Z,100.00
2018-06-09T18:35:13.505Z,96.25
2018-06-09T18:37:42.877Z,97.94
2018-06-09T18:40:12.206Z,96.78
2018-06-09T18:42:42.260Z,98.88
2018-06-09T18:45:11.619Z,100.00
2018-06-09T18:47:41.059Z,100.00
2018-06-09T18:50:10.472Z,100.00
2018-06-09T18:52:39.812Z,100.00
2018-06-09T18:55:09.200Z,100.00
2018-06-09T18:57:38.479Z,100.00
2018-06-09T19:00:07.752Z,100.00
2018-06-09T19:02:37.029Z,100.00
2018-06-09T19:05:06.356Z,100.00
2018-06-09T19:07:35.655Z,100.00
2018-06-09T19:10:05.017Z,100.00
2018-06-09T19:12:34.361Z,100.00
2018-06-09T19:15:03.719Z,100.00
2018-06-09T19:17:33.031Z,100.00
2018-06-09T19:20:03.031Z,100.00
2018-06-09T19:22:32.378Z,100.00
2018-06-09T19:25:01.951Z,100.00
2018-06-09T19:27:31.311Z,100.00
2018-06-09T19:30:00.610Z,100.00
2018-06-09T19:32:29.875Z,100.00
2018-06-09T19:34:59.195Z,100.00
2018-06-09T19:37:28.591Z,100.00
2018-06-09T19:39:57.863Z,100.00
2018-06-09T19:42:27.127Z,100.00
2018-06-09T19:44:56.435Z,100.00
2018-06-09T19:47:25.722Z,100.00
2018-06-09T19:49:54.979Z,100.00
2018-06-09T19:52:24.215Z,100.00
2018-06-09T19:54:53.547Z,100.00
2018-06-09T19:57:22.842Z,100.00
2018-06-09T19:59:52.114Z,100.00
2018-06-09T20:02:21.402Z,100.00
2018-06-09T20:04:50.455Z,100.00
2018-06-09T20:07:19.738Z,100.00
2018-06-09T20:09:48.997Z,100.00
2018-06-09T20:12:18.259Z,100.00
2018-06-09T20:14:47.554Z,100.00
2018-06-09T20:17:16.789Z,100.00
2018-06-09T20:19:46.066Z,100.00
2018-06-09T20:22:15.397Z,100.00
2018-06-09T20:24:44.751Z,100.00
2018-06-09T20:27:14.148Z,100.00
2018-06-09T20:29:43.623Z,100.00
2018-06-09T20:32:13.035Z,100.00
2018-06-09T20:34:42.389Z,100.00
2018-06-09T20:37:11.748Z,100.00
2018-06-09T20:39:41.127Z,100.00
2018-06-09T20:42:10.409Z,100.00
2018-06-09T20:44:40.085Z,100.00
2018-06-09T20:47:09.329Z,100.00
2018-06-09T20:49:38.621Z,100.00
2018-06-09T20:52:07.879Z,100.00
2018-06-09T20:54:37.122Z,100.00
2018-06-09T20:57:06.411Z,100.00
2018-06-09T20:59:35.665Z,100.00
2018-06-09T21:02:04.952Z,100.00
2018-06-09T21:04:34.322Z,100.00
2018-06-09T21:07:03.692Z,100.00
2018-06-09T21:09:33.019Z,100.00
2018-06-09T21:12:02.316Z,100.00
2018-06-09T21:14:31.610Z,100.00
2018-06-09T21:17:00.915Z,100.00
2018-06-09T21:19:30.242Z,100.00
2018-06-09T21:21:59.413Z,100.00
2018-06-09T21:24:28.690Z,100.00
2018-06-09T21:27:03.092Z,100.00
2018-06-09T21:29:38.460Z,100.00
2018-06-09T21:32:10.101Z,100.00
2018-06-09T21:35:01.566Z,100.00
2018-06-09T21:37:39.912Z,100.00
2018-06-09T21:40:24.652Z,100.00
2018-06-09T21:42:59.446Z,100.00
2018-06-09T21:45:33.827Z,100.00
2018-06-09T21:48:03.059Z,100.00
2018-06-09T21:50:32.330Z,100.00
2018-06-09T21:53:01.382Z,100.00
2018-06-09T21:55:30.627Z,100.00
2018-06-09T21:57:59.951Z,100.00
2018-06-09T22:00:29.228Z,100.00
2018-06-09T22:02:58.455Z,100.00
2018-06-09T22:05:27.694Z,100.00
2018-06-09T22:07:56.951Z,100.00
2018-06-09T22:10:26.234Z,100.00
2018-06-09T22:12:55.538Z,100.00
2018-06-09T22:15:24.827Z,100.00
2018-06-09T22:17:54.091Z,100.00
2018-06-09T22:20:23.358Z,100.00
2018-06-09T22:22:52.619Z,100.00
2018-06-09T22:25:27.139Z,100.00
2018-06-09T22:27:56.440Z,100.00
2018-06-09T22:30:25.702Z,100.00
2018-06-09T22:32:54.956Z,100.00
2018-06-09T22:35:24.236Z,100.00
2018-06-09T22:37:53.480Z,100.00
2018-06-09T22:40:22.763Z,100.00
2018-06-09T22:42:52.051Z,100.00
2018-06-09T22:45:21.311Z,100.00
2018-06-09T22:47:51.238Z,100.00
2018-06-09T22:50:20.503Z,100.00
2018-06-09T22:52:49.762Z,100.00
2018-06-09T22:55:19.019Z,100.00
2018-06-09T22:57:48.360Z,100.00
2018-06-09T23:00:55.852Z,100.00
2018-06-09T23:03:25.095Z,100.00
2018-06-09T23:05:54.131Z,100.00
2018-06-09T23:08:23.460Z,100.00
2018-06-09T23:10:52.430Z,100.00
2018-06-09T23:13:21.687Z,100.00
2018-06-09T23:15:50.907Z,100.00
2018-06-09T23:18:20.104Z,100.00
2018-06-09T23:20:49.331Z,100.00
2018-06-09T23:23:18.551Z,100.00
2018-06-09T23:25:47.807Z,100.00
2018-06-09T23:28:17.034Z,100.00
2018-06-09T23:30:46.331Z,100.00
2018-06-09T23:33:15.509Z,100.00
2018-06-09T23:35:44.771Z,100.00
2018-06-09T23:38:14.051Z,100.00
2018-06-09T23:40:43.339Z,100.00
2018-06-09T23:43:12.659Z,100.00
2018-06-09T23:45:41.979Z,100.00
2018-06-09T23:48:11.240Z,100.00
2018-06-09T23:50:40.506Z,100.00
2018-06-09T23:53:09.800Z,100.00
2018-06-09T23:55:39.044Z,100.00
2018-06-09T23:58:08.276Z,100.00
